createdAt,value
2018-07-25T00:00:41.965Z,16.30
2018-07-25T00:03:10.865Z,20.30
2018-07-25T00:05:39.758Z,12.73
2018-07-25T00:08:08.648Z,18.73
2018-07-25T00:10:43.065Z,21.93
2018-07-25T00:13:11.904Z,13.90
2018-07-25T00:15:40.699Z,11.77
2018-07-25T00:18:09.576Z,17.77
2018-07-25T00:20:38.439Z,20.23
2018-07-25T00:23:07.403Z,14.50
2018-07-25T00:25:36.239Z,16.60
2018-07-25T00:28:05.055Z,17.17
2018-07-25T00:30:33.911Z,16.60
2018-07-25T00:33:02.754Z,16.90
2018-07-25T00:35:31.562Z,16.83
2018-07-25T00:38:00.576Z,17.97
2018-07-25T00:40:29.857Z,16.27
2018-07-25T00:42:59.325Z,13.53
2018-07-25T00:45:28.208Z,17.43
2018-07-25T00:47:57.006Z,13.47
2018-07-25T00:50:25.880Z,18.80
2018-07-25T00:52:54.762Z,17.87
2018-07-25T00:55:23.672Z,14.60
2018-07-25T00:57:52.573Z,15.20
2018-07-25T01:00:21.464Z,17.60
2018-07-25T01:02:50.670Z,18.87
2018-07-25T01:05:19.534Z,13.90
2018-07-25T01:07:48.384Z,14.97
2018-07-25T01:10:17.247Z,14.87
2018-07-25T01:12:46.108Z,14.27
2018-07-25T01:15:14.984Z,17.13
2018-07-25T01:17:43.857Z,13.87
2018-07-25T01:20:12.728Z,12.30
2018-07-25T01:22:41.551Z,21.40
2018-07-25T01:25:10.423Z,15.87
2018-07-25T01:27:39.259Z,15.17
2018-07-25T01:30:08.068Z,15.60
2018-07-25T01:32:36.927Z,15.40
2018-07-25T01:35:05.870Z,18.47
2018-07-25T01:37:34.756Z,15.10
2018-07-25T01:40:03.674Z,18.10
2018-07-25T01:42:32.516Z,18.73
2018-07-25T01:45:01.397Z,16.50
2018-07-25T01:47:30.226Z,15.87
2018-07-25T01:49:59.066Z,14.70
2018-07-25T01:52:27.923Z,13.43
2018-07-25T01:54:56.744Z,16.07
2018-07-25T01:57:25.606Z,16.67
2018-07-25T01:59:54.432Z,16.37
2018-07-25T02:02:23.289Z,22.40
2018-07-25T02:04:52.082Z,19.80
2018-07-25T02:07:20.933Z,19.37
2018-07-25T02:09:49.816Z,13.80
2018-07-25T02:12:18.754Z,14.17
2018-07-25T02:14:47.647Z,16.70
2018-07-25T02:17:16.734Z,15.30
2018-07-25T02:19:45.649Z,12.87
2018-07-25T02:22:14.590Z,17.70
2018-07-25T02:24:43.515Z,15.90
2018-07-25T02:27:12.420Z,15.20
2018-07-25T02:29:41.297Z,25.33
2018-07-25T02:32:10.566Z,14.37
2018-07-25T02:34:39.452Z,20.73
2018-07-25T02:37:08.284Z,15.40
2018-07-25T02:39:37.104Z,19.70
2018-07-25T02:42:06.007Z,13.90
2018-07-25T02:44:34.881Z,17.40
2018-07-25T02:47:03.675Z,19.13
2018-07-25T02:49:32.570Z,15.50
2018-07-25T02:52:01.450Z,17.23
2018-07-25T02:54:30.246Z,14.60
2018-07-25T02:56:59.140Z,16.90
2018-07-25T02:59:27.984Z,16.27
2018-07-25T03:01:56.782Z,16.60
2018-07-25T03:04:25.637Z,29.87
2018-07-25T03:06:54.433Z,17.37
2018-07-25T03:09:23.254Z,14.97
2018-07-25T03:11:52.094Z,18.80
2018-07-25T03:14:20.940Z,17.27
2018-07-25T03:16:49.811Z,13.37
2018-07-25T03:19:19.123Z,15.50
2018-07-25T03:21:47.975Z,15.17
2018-07-25T03:24:16.827Z,20.93
2018-07-25T03:26:45.648Z,27.77
2018-07-25T03:29:14.447Z,11.97
2018-07-25T03:31:43.254Z,16.73
2018-07-25T03:34:12.192Z,13.47
2018-07-25T03:36:41.042Z,22.13
2018-07-25T03:39:09.849Z,14.10
2018-07-25T03:41:38.770Z,20.87
2018-07-25T03:44:07.595Z,14.00
2018-07-25T03:46:36.458Z,16.67
2018-07-25T03:49:05.314Z,11.67
2018-07-25T03:51:34.221Z,15.63
2018-07-25T03:54:03.066Z,19.83
2018-07-25T03:56:31.890Z,18.80
2018-07-25T03:59:00.691Z,13.20
2018-07-25T04:01:29.545Z,16.53
2018-07-25T04:03:58.363Z,12.70
2018-07-25T04:06:27.231Z,14.07
2018-07-25T04:08:56.107Z,23.87
2018-07-25T04:11:24.932Z,16.30
2018-07-25T04:13:53.735Z,15.00
2018-07-25T04:16:22.572Z,16.03
2018-07-25T04:18:51.423Z,16.60
2018-07-25T04:21:20.219Z,15.83
2018-07-25T04:23:49.043Z,11.90
2018-07-25T04:26:17.852Z,16.80
2018-07-25T04:28:46.689Z,18.87
2018-07-25T04:31:15.510Z,21.60
2018-07-25T04:33:44.308Z,13.37
2018-07-25T04:36:13.139Z,22.43
2018-07-25T04:38:42.004Z,18.07
2018-07-25T04:41:10.835Z,18.03
2018-07-25T04:43:39.705Z,16.83
2018-07-25T04:46:08.620Z,18.00
2018-07-25T04:48:37.412Z,21.63
2018-07-25T04:51:06.377Z,17.93
2018-07-25T04:53:35.330Z,18.67
2018-07-25T04:56:04.243Z,14.80
2018-07-25T04:58:33.021Z,17.83
2018-07-25T05:01:01.920Z,13.30
2018-07-25T05:03:30.723Z,19.20
2018-07-25T05:05:59.538Z,17.20
2018-07-25T05:08:28.371Z,16.93
2018-07-25T05:10:57.248Z,15.00
2018-07-25T05:13:26.919Z,18.63
2018-07-25T05:15:55.822Z,16.50
2018-07-25T05:18:24.626Z,14.40
2018-07-25T05:20:53.489Z,16.80
2018-07-25T05:23:22.361Z,15.87
2018-07-25T05:25:51.136Z,14.10
2018-07-25T05:28:19.991Z,16.87
2018-07-25T05:30:48.806Z,16.30
2018-07-25T05:33:17.640Z,23.33
2018-07-25T05:35:46.487Z,18.80
2018-07-25T05:38:15.385Z,16.03
2018-07-25T05:40:44.176Z,21.60
2018-07-25T05:43:12.966Z,20.80
2018-07-25T05:45:41.804Z,21.47
2018-07-25T05:48:10.664Z,21.07
2018-07-25T05:50:39.585Z,23.40
2018-07-25T05:53:08.457Z,27.23
2018-07-25T05:55:37.301Z,21.00
2018-07-25T05:58:06.114Z,31.57
2018-07-25T06:00:34.918Z,16.63
2018-07-25T06:03:03.860Z,29.10
2018-07-25T06:05:32.624Z,23.03
2018-07-25T06:08:01.460Z,18.10
2018-07-25T06:10:31.141Z,21.07
2018-07-25T06:13:00.054Z,26.03
2018-07-25T06:15:28.884Z,23.57
2018-07-25T06:17:57.690Z,18.77
2018-07-25T06:20:26.564Z,20.10
2018-07-25T06:22:55.387Z,20.30
2018-07-25T06:25:24.207Z,28.30
2018-07-25T06:27:53.377Z,15.10
2018-07-25T06:30:22.393Z,18.17
2018-07-25T06:32:51.277Z,19.03
2018-07-25T06:35:20.116Z,17.73
2018-07-25T06:37:48.977Z,15.70
2018-07-25T06:40:17.807Z,18.70
2018-07-25T06:42:46.656Z,21.60
2018-07-25T06:45:15.507Z,15.07
2018-07-25T06:47:44.336Z,22.20
2018-07-25T06:50:13.199Z,15.70
2018-07-25T06:52:42.092Z,16.90
2018-07-25T06:55:10.985Z,14.90
2018-07-25T06:57:39.815Z,13.20
2018-07-25T07:00:08.794Z,14.23
2018-07-25T07:02:37.639Z,15.83
2018-07-25T07:05:06.475Z,12.97
2018-07-25T07:07:35.322Z,15.27
2018-07-25T07:10:04.430Z,12.00
2018-07-25T07:12:33.263Z,29.40
2018-07-25T07:15:02.092Z,26.00
2018-07-25T07:17:31.023Z,16.50
2018-07-25T07:19:59.856Z,16.70
2018-07-25T07:22:28.762Z,11.90
2018-07-25T07:24:57.614Z,12.07
2018-07-25T07:27:26.471Z,12.10
2018-07-25T07:29:55.310Z,14.73
2018-07-25T07:32:24.218Z,17.43
2018-07-25T07:34:53.047Z,11.93
2018-07-25T07:37:21.995Z,16.53
2018-07-25T07:39:50.750Z,15.20
2018-07-25T07:42:19.555Z,10.33
2018-07-25T07:44:48.548Z,12.70
2018-07-25T07:47:17.432Z,21.40
2018-07-25T07:49:46.254Z,16.07
2018-07-25T07:52:15.100Z,12.80
2018-07-25T07:54:44.009Z,22.67
2018-07-25T07:57:12.843Z,13.37
2018-07-25T07:59:41.728Z,14.23
2018-07-25T08:02:10.615Z,13.83
2018-07-25T08:04:39.448Z,12.43
2018-07-25T08:07:08.301Z,13.40
2018-07-25T08:09:37.171Z,16.03
2018-07-25T08:12:06.103Z,15.07
2018-07-25T08:14:35.022Z,14.20
2018-07-25T08:17:03.907Z,13.60
2018-07-25T08:19:32.751Z,12.30
2018-07-25T08:22:01.617Z,12.57
2018-07-25T08:24:30.451Z,13.47
2018-07-25T08:26:59.486Z,16.20
2018-07-25T08:29:28.308Z,11.33
2018-07-25T08:31:57.157Z,9.70
2018-07-25T08:34:26.073Z,11.97
2018-07-25T08:36:54.884Z,14.10
2018-07-25T08:39:23.716Z,13.40
2018-07-25T08:41:52.590Z,12.57
2018-07-25T08:44:21.420Z,13.57
2018-07-25T08:46:50.318Z,10.53
2018-07-25T08:49:19.834Z,14.67
2018-07-25T08:51:48.720Z,10.83
2018-07-25T08:54:17.524Z,11.43
2018-07-25T08:56:46.363Z,12.90
2018-07-25T08:59:15.163Z,18.80
2018-07-25T09:01:44.025Z,12.40
2018-07-25T09:04:12.887Z,12.57
2018-07-25T09:06:41.800Z,19.43
2018-07-25T09:09:11.297Z,13.30
2018-07-25T09:11:40.176Z,17.60
2018-07-25T09:14:09.040Z,10.53
2018-07-25T09:16:37.909Z,14.90
2018-07-25T09:19:06.767Z,12.10
2018-07-25T09:21:35.586Z,11.20
2018-07-25T09:24:04.432Z,13.97
2018-07-25T09:26:33.231Z,13.40
2018-07-25T09:29:02.018Z,13.33
2018-07-25T09:31:30.852Z,17.50
2018-07-25T09:33:59.717Z,10.87
2018-07-25T09:36:28.527Z,13.87
2018-07-25T09:38:57.432Z,8.63
2018-07-25T09:41:26.246Z,12.33
2018-07-25T09:43:55.108Z,14.47
2018-07-25T09:46:23.948Z,12.00
2018-07-25T09:48:52.788Z,9.20
2018-07-25T09:51:21.848Z,13.57
2018-07-25T09:53:50.720Z,11.97
2018-07-25T09:56:19.614Z,10.27
2018-07-25T09:58:48.555Z,9.90
2018-07-25T10:01:17.360Z,10.20
2018-07-25T10:03:46.171Z,8.00
2018-07-25T10:06:15.034Z,12.70
2018-07-25T10:08:43.885Z,13.50
2018-07-25T10:11:12.731Z,9.90
2018-07-25T10:13:41.584Z,12.90
2018-07-25T10:16:10.444Z,13.07
2018-07-25T10:18:39.337Z,10.70
2018-07-25T10:21:08.207Z,13.00
2018-07-25T10:23:37.060Z,15.50
2018-07-25T10:26:05.956Z,12.40
2018-07-25T10:28:34.803Z,11.10
2018-07-25T10:31:03.677Z,8.70
2018-07-25T10:33:32.499Z,11.63
2018-07-25T10:36:07.686Z,10.70
2018-07-25T10:38:36.560Z,10.07
2018-07-25T10:41:05.450Z,12.50
2018-07-25T10:43:34.287Z,8.33
2018-07-25T10:46:03.158Z,13.13
2018-07-25T10:48:31.986Z,8.27
2018-07-25T10:51:00.865Z,15.40
2018-07-25T10:53:29.773Z,10.83
2018-07-25T10:55:58.695Z,9.43
2018-07-25T10:58:27.472Z,9.57
2018-07-25T11:00:56.460Z,11.43
2018-07-25T11:03:25.313Z,11.30
2018-07-25T11:05:54.160Z,11.80
2018-07-25T11:08:22.992Z,9.23
2018-07-25T11:10:51.843Z,7.70
2018-07-25T11:13:23.628Z,8.33
2018-07-25T11:15:52.511Z,10.30
2018-07-25T11:18:21.351Z,10.80
2018-07-25T11:20:50.244Z,9.53
2018-07-25T11:23:19.128Z,8.47
2018-07-25T11:25:47.951Z,8.73
2018-07-25T11:28:16.875Z,6.83
2018-07-25T11:30:45.694Z,10.33
2018-07-25T11:33:14.545Z,8.60
2018-07-25T11:35:43.339Z,7.60
2018-07-25T11:38:12.246Z,9.70
2018-07-25T11:40:41.036Z,15.90
2018-07-25T11:43:09.871Z,15.83
2018-07-25T11:45:38.712Z,9.10
2018-07-25T11:48:07.541Z,9.03
2018-07-25T11:50:36.403Z,20.93
2018-07-25T11:53:05.305Z,8.00
2018-07-25T11:55:34.170Z,8.30
2018-07-25T11:58:03.035Z,6.40
2018-07-25T12:00:31.914Z,7.33
2018-07-25T12:03:00.773Z,8.50
2018-07-25T12:05:32.482Z,7.03
2018-07-25T12:08:01.335Z,7.43
2018-07-25T12:10:30.193Z,7.00
2018-07-25T12:12:59.073Z,7.70
2018-07-25T12:15:27.792Z,5.00
2018-07-25T12:17:56.637Z,5.73
2018-07-25T12:20:25.495Z,6.90
2018-07-25T12:22:54.304Z,5.72
2018-07-25T12:25:23.616Z,8.10
2018-07-25T12:27:52.861Z,7.55
2018-07-25T12:30:22.514Z,5.17
2018-07-25T12:32:58.174Z,5.50
2018-07-25T12:35:27.031Z,6.60
2018-07-25T12:37:55.928Z,4.42
2018-07-25T12:40:24.802Z,6.10
2018-07-25T12:42:53.669Z,6.65
2018-07-25T12:45:22.509Z,3.87
2018-07-25T12:50:48.810Z,7.28
2018-07-25T12:53:17.722Z,6.40
2018-07-25T12:55:46.536Z,7.72
2018-07-25T12:58:15.347Z,4.45
2018-07-25T13:00:46.292Z,4.20
2018-07-25T13:03:15.153Z,4.70
2018-07-25T13:05:44.003Z,3.70
2018-07-25T13:08:12.818Z,5.17
2018-07-25T13:10:41.669Z,5.60
2018-07-25T13:13:10.582Z,3.67
2018-07-25T13:15:39.419Z,3.80
2018-07-25T13:18:08.276Z,4.92
2018-07-25T13:20:37.216Z,3.35
2018-07-25T13:23:06.262Z,4.35
2018-07-25T13:25:35.059Z,5.15
2018-07-25T13:28:03.980Z,3.83
2018-07-25T13:30:33.002Z,3.90
2018-07-25T13:33:01.955Z,4.17
2018-07-25T13:35:31.435Z,4.55
2018-07-25T13:38:00.298Z,6.00
2018-07-25T13:40:29.097Z,7.17
2018-07-25T13:42:58.049Z,7.97
2018-07-25T13:45:26.883Z,4.65
2018-07-25T13:47:55.736Z,4.80
2018-07-25T13:50:24.583Z,5.37
2018-07-25T13:52:53.434Z,3.50
2018-07-25T13:55:22.254Z,4.50
2018-07-25T13:57:51.082Z,4.33
2018-07-25T14:00:20.028Z,4.37
2018-07-25T14:02:48.890Z,4.70
2018-07-25T14:05:17.808Z,3.75
2018-07-25T14:07:46.571Z,5.08
2018-07-25T14:10:15.375Z,3.70
2018-07-25T14:12:44.244Z,4.35
2018-07-25T14:15:13.068Z,6.30
2018-07-25T14:17:41.980Z,4.15
2018-07-25T14:20:10.845Z,4.55
2018-07-25T14:22:39.637Z,4.17
2018-07-25T14:25:08.534Z,3.30
2018-07-25T14:27:37.611Z,3.90
2018-07-25T14:30:06.563Z,5.25
2018-07-25T14:32:35.437Z,6.15
2018-07-25T14:35:04.256Z,3.60
2018-07-25T14:37:33.165Z,3.90
2018-07-25T14:40:02.055Z,4.45
2018-07-25T14:42:30.831Z,3.12
2018-07-25T14:44:59.788Z,2.90
2018-07-25T14:47:28.544Z,3.72
2018-07-25T14:49:57.407Z,3.17
2018-07-25T14:52:26.428Z,3.98
2018-07-25T14:54:55.263Z,2.90
2018-07-25T14:57:24.273Z,5.05
2018-07-25T14:59:53.187Z,3.17
2018-07-25T15:02:22.080Z,3.42
2018-07-25T15:04:50.935Z,5.42
2018-07-25T15:10:17.199Z,3.30
2018-07-25T15:12:51.372Z,4.40
2018-07-25T15:15:20.268Z,4.92
2018-07-25T15:17:49.183Z,4.85
2018-07-25T15:20:18.010Z,3.37
2018-07-25T15:22:46.917Z,4.15
2018-07-25T15:25:15.768Z,5.40
2018-07-25T15:27:44.764Z,4.92
2018-07-25T15:30:13.641Z,3.52
2018-07-25T15:32:42.645Z,4.22
2018-07-25T15:35:11.628Z,3.70
2018-07-25T15:37:40.426Z,4.92
2018-07-25T15:40:09.605Z,4.12
2018-07-25T15:42:38.406Z,5.45
2018-07-25T15:45:07.537Z,3.95
2018-07-25T15:47:36.405Z,3.08
2018-07-25T15:50:06.203Z,4.17
2018-07-25T15:52:35.034Z,4.20
2018-07-25T15:55:03.921Z,4.75
2018-07-25T15:57:32.788Z,6.37
2018-07-25T16:00:01.658Z,5.70
2018-07-25T16:02:30.539Z,4.05
2018-07-25T16:04:59.416Z,4.85
2018-07-25T16:07:28.346Z,9.25
2018-07-25T16:09:57.182Z,4.42
2018-07-25T16:12:26.008Z,5.67
2018-07-25T16:14:54.887Z,6.40
2018-07-25T16:17:23.727Z,4.15
2018-07-25T16:19:52.544Z,4.28
2018-07-25T16:22:21.345Z,6.80
2018-07-25T16:24:50.273Z,5.42
2018-07-25T16:27:19.157Z,5.03
2018-07-25T16:29:48.000Z,6.60
2018-07-25T16:32:16.852Z,4.03
2018-07-25T16:34:45.784Z,5.05
2018-07-25T16:37:14.627Z,6.15
2018-07-25T16:39:43.418Z,4.70
2018-07-25T16:42:12.272Z,9.83
2018-07-25T16:44:41.111Z,5.30
2018-07-25T16:47:10.223Z,9.70
2018-07-25T16:49:39.097Z,6.72
2018-07-25T16:52:07.984Z,5.10
2018-07-25T16:54:36.888Z,9.20
2018-07-25T16:57:05.924Z,5.42
2018-07-25T16:59:34.858Z,5.12
2018-07-25T17:02:03.761Z,5.35
2018-07-25T17:04:32.684Z,6.67
2018-07-25T17:07:01.579Z,6.30
2018-07-25T17:09:30.456Z,6.53
2018-07-25T17:11:59.302Z,5.73
2018-07-25T17:14:28.186Z,10.90
2018-07-25T17:16:57.095Z,9.60
2018-07-25T17:19:26.751Z,5.90
2018-07-25T17:21:55.615Z,8.40
2018-07-25T17:24:24.444Z,7.70
2018-07-25T17:26:53.360Z,7.70
2018-07-25T17:29:22.199Z,7.13
2018-07-25T17:31:51.003Z,9.67
2018-07-25T17:34:19.847Z,6.90
2018-07-25T17:36:48.741Z,8.97
2018-07-25T17:39:17.611Z,5.70
2018-07-25T17:41:46.515Z,8.30
2018-07-25T17:44:16.129Z,7.73
2018-07-25T17:46:45.067Z,7.77
2018-07-25T17:49:13.911Z,15.13
2018-07-25T17:51:42.816Z,8.47
2018-07-25T17:54:11.773Z,6.70
2018-07-25T17:56:56.175Z,16.53
2018-07-25T17:59:24.944Z,7.80
2018-07-25T18:01:53.801Z,10.40
2018-07-25T18:04:22.699Z,11.80
2018-07-25T18:06:51.604Z,12.33
2018-07-25T18:09:20.480Z,8.27
2018-07-25T18:11:49.370Z,9.67
2018-07-25T18:14:18.248Z,13.67
2018-07-25T18:16:47.107Z,9.10
2018-07-25T18:19:16.626Z,15.27
2018-07-25T18:21:46.021Z,11.10
2018-07-25T18:24:14.867Z,9.17
2018-07-25T18:26:43.687Z,10.77
2018-07-25T18:29:12.599Z,12.90
2018-07-25T18:31:42.091Z,15.33
2018-07-25T18:34:10.955Z,14.83
2018-07-25T18:36:39.950Z,12.93
2018-07-25T18:39:11.163Z,9.73
2018-07-25T18:41:40.587Z,15.33
2018-07-25T18:44:10.040Z,14.53
2018-07-25T18:46:39.320Z,19.60
2018-07-25T18:49:08.382Z,20.80
2018-07-25T18:51:37.316Z,11.57
2018-07-25T18:54:06.158Z,15.20
2018-07-25T18:56:35.041Z,16.90
2018-07-25T18:59:03.868Z,13.20
2018-07-25T19:01:32.671Z,12.00
2018-07-25T19:04:01.509Z,13.00
2018-07-25T19:06:30.299Z,18.57
2018-07-25T19:08:59.160Z,12.83
2018-07-25T19:11:28.738Z,13.40
2018-07-25T19:14:03.084Z,13.03
2018-07-25T19:16:31.940Z,15.50
2018-07-25T19:19:00.772Z,17.37
2018-07-25T19:21:29.590Z,13.10
2018-07-25T19:23:58.399Z,11.67
2018-07-25T19:26:27.207Z,13.83
2018-07-25T19:28:56.052Z,15.17
2018-07-25T19:31:25.640Z,22.13
2018-07-25T19:33:54.908Z,12.50
2018-07-25T19:36:23.853Z,23.33
2018-07-25T19:38:52.654Z,12.83
2018-07-25T19:41:22.236Z,22.33
2018-07-25T19:43:51.130Z,16.63
2018-07-25T19:46:19.948Z,15.30
2018-07-25T19:48:48.766Z,12.60
2018-07-25T19:51:17.641Z,12.63
2018-07-25T19:53:46.465Z,17.37
2018-07-25T19:56:15.274Z,20.13
2018-07-25T19:58:44.121Z,24.97
2018-07-25T20:01:12.981Z,13.93
2018-07-25T20:03:41.868Z,17.67
2018-07-25T20:06:11.865Z,19.93
2018-07-25T20:08:40.969Z,13.37
2018-07-25T20:11:10.153Z,16.33
2018-07-25T20:13:44.402Z,17.33
2018-07-25T20:16:13.252Z,11.53
2018-07-25T20:18:42.117Z,22.50
2018-07-25T20:21:11.021Z,11.77
2018-07-25T20:23:39.880Z,15.80
2018-07-25T20:26:08.723Z,16.83
2018-07-25T20:28:38.820Z,14.23
2018-07-25T20:31:07.676Z,11.03
2018-07-25T20:33:36.530Z,14.57
2018-07-25T20:36:05.615Z,13.10
2018-07-25T20:38:34.460Z,12.43
2018-07-25T20:41:03.311Z,14.00
2018-07-25T20:43:32.115Z,11.57
2018-07-25T20:46:01.012Z,11.53
2018-07-25T20:48:30.784Z,15.53
2018-07-25T20:50:59.912Z,12.47
2018-07-25T20:53:28.785Z,13.00
2018-07-25T20:55:57.925Z,15.80
2018-07-25T20:58:26.847Z,14.27
2018-07-25T21:00:55.703Z,11.00
2018-07-25T21:03:24.836Z,11.50
2018-07-25T21:05:53.674Z,14.17
2018-07-25T21:08:22.609Z,15.47
2018-07-25T21:10:51.521Z,12.43
2018-07-25T21:13:20.460Z,12.43
2018-07-25T21:15:49.306Z,12.97
2018-07-25T21:18:18.193Z,12.00
2018-07-25T21:20:47.007Z,25.50
2018-07-25T21:23:15.872Z,13.37
2018-07-25T21:25:44.760Z,11.57
2018-07-25T21:28:13.623Z,16.00
2018-07-25T21:30:42.442Z,20.03
2018-07-25T21:33:11.296Z,18.93
2018-07-25T21:35:40.202Z,17.50
2018-07-25T21:38:09.032Z,11.80
2018-07-25T21:40:37.886Z,11.97
2018-07-25T21:43:06.860Z,19.20
2018-07-25T21:45:35.682Z,15.00
2018-07-25T21:48:04.562Z,14.70
2018-07-25T21:50:33.424Z,13.77
2018-07-25T21:53:02.262Z,12.80
2018-07-25T21:55:31.154Z,12.60
2018-07-25T21:58:00.045Z,17.00
2018-07-25T22:00:28.909Z,13.67
2018-07-25T22:02:57.714Z,12.70
2018-07-25T22:05:26.540Z,13.30
2018-07-25T22:07:55.359Z,18.27
2018-07-25T22:10:26.019Z,11.60
2018-07-25T22:12:56.188Z,27.60
2018-07-25T22:15:25.081Z,14.50
2018-07-25T22:17:53.938Z,15.47
2018-07-25T22:20:22.969Z,15.37
2018-07-25T22:22:51.804Z,12.40
2018-07-25T22:25:20.628Z,19.43
2018-07-25T22:27:49.535Z,17.80
2018-07-25T22:30:18.429Z,14.60
2018-07-25T22:32:47.513Z,14.70
2018-07-25T22:35:16.426Z,15.47
2018-07-25T22:37:45.237Z,18.47
2018-07-25T22:40:13.951Z,12.00
2018-07-25T22:42:42.770Z,12.60
2018-07-25T22:45:11.630Z,13.63
2018-07-25T22:47:40.479Z,12.80
2018-07-25T22:50:09.266Z,14.10
2018-07-25T22:52:38.108Z,13.93
2018-07-25T22:55:07.128Z,15.37
2018-07-25T22:57:35.989Z,15.17
2018-07-25T23:00:05.289Z,14.50
2018-07-25T23:02:34.143Z,12.00
2018-07-25T23:05:03.016Z,16.10
2018-07-25T23:07:31.894Z,16.77
2018-07-25T23:10:00.822Z,12.83
2018-07-25T23:12:29.839Z,12.87
2018-07-25T23:14:58.659Z,13.50
2018-07-25T23:17:27.508Z,24.53
2018-07-25T23:19:56.370Z,12.30
2018-07-25T23:22:25.131Z,14.43
2018-07-25T23:24:53.987Z,15.83
2018-07-25T23:27:22.808Z,14.23
2018-07-25T23:29:51.652Z,16.77
2018-07-25T23:32:20.480Z,18.33
2018-07-25T23:34:49.374Z,17.87
2018-07-25T23:37:18.280Z,14.73
2018-07-25T23:39:47.070Z,12.57
2018-07-25T23:42:15.878Z,18.17
2018-07-25T23:44:44.745Z,12.80
2018-07-25T23:47:13.580Z,11.27
2018-07-25T23:49:42.453Z,15.73
2018-07-25T23:52:11.368Z,12.60
2018-07-25T23:54:40.260Z,12.60
2018-07-25T23:57:09.088Z,12.27
2018-07-25T23:59:37.939Z,13.57
